Rolla, Kansas
Current Conditions -  °F | °C
As of 1:53 PM on Wednesday 26 Nov 2014 (Local Time) from KGUY Reporting Station
Clear Clear  
Wind Chill: 44°   Ceiling: Unl
Heat Index: 49°   Visibility: 10mi
Dew Point: 21°   Wind: 13mph
Humidity: 33%   Direction: 360°N
Pressure: 30.25"   Gusts: 20mph
Location:  37.12°N, 101.63°W
Report Text: KGUY 261953Z AUTO 36011G17KT 10SM CLR 09/M06 A3025 RMK AO2 SLP241 T00941061
Loading
Personal Weather Stations






























Interactive Weather Map New forecast layout! Learn more

10-Day Weather Forecast

Advertisements
Track Severe Weather on mobile